Time;durP1;ratioP1;P1;durP2;ratioP2;P2;SDS_P1;SDS_P2;PMS_P1;PMS_P2;Temp;Humidity;BMP_temperature;BMP_pressure;BME280_temperature;BME280_humidity;BME280_pressure;Samples;Min_cycle;Max_cycle;Signal;HPM_P1;HPM_P2
2022/10/13 00:06:48;;;;;;;10;17;;;;;;;3.4;88.6;99670;;;;
2022/10/13 00:17:48;;;;;;;10;17;;;;;;;3.2;88.3;99670;;;;
2022/10/13 00:27:48;;;;;;;10;17;;;;;;;3.1;88.4;99670;;;;
2022/10/13 00:38:48;;;;;;;9.1;14.7;;;;;;;3.1;88.4;99660;;;;
2022/10/13 00:49:48;;;;;;;9.1;14.7;;;;;;;3;88.1;99660;;;;
2022/10/13 00:59:48;;;;;;;8.9;16.4;;;;;;;2.9;88.1;99660;;;;
2022/10/13 01:09:48;;;;;;;8.9;16.4;;;;;;;2.9;88.3;99650;;;;
2022/10/13 01:20:49;;;;;;;8.9;16.4;;;;;;;2.8;88.5;99640;;;;
2022/10/13 01:31:48;;;;;;;8.9;17.7;;;;;;;2.8;88.8;99640;;;;
2022/10/13 01:41:48;;;;;;;8.9;17.7;;;;;;;2.9;89.1;99630;;;;
2022/10/13 01:51:48;;;;;;;8.9;17.7;;;;;;;2.8;89.1;99620;;;;
2022/10/13 02:01:48;;;;;;;9.3;17.8;;;;;;;2.8;89;99620;;;;
2022/10/13 02:12:48;;;;;;;9.3;17.8;;;;;;;2.7;89.1;99610;;;;
2022/10/13 02:23:48;;;;;;;9.3;17.8;;;;;;;2.6;88.7;99610;;;;
2022/10/13 02:34:48;;;;;;;8.4;14.5;;;;;;;2.5;88.4;99600;;;;
2022/10/13 02:44:48;;;;;;;8.4;14.5;;;;;;;2.4;88.2;99600;;;;
2022/10/13 02:55:48;;;;;;;8.4;14.5;;;;;;;2.3;88.6;99600;;;;
2022/10/13 03:05:48;;;;;;;8.9;13.7;;;;;;;2.2;88.5;99600;;;;
2022/10/13 03:16:48;;;;;;;8.9;13.7;;;;;;;2;88.7;99590;;;;
2022/10/13 03:27:48;;;;;;;10.3;17.9;;;;;;;2;88.8;99580;;;;
2022/10/13 03:37:48;;;;;;;10.3;17.9;;;;;;;2;88.6;99580;;;;
2022/10/13 03:48:48;;;;;;;10.3;17.9;;;;;;;1.9;88.4;99590;;;;
2022/10/13 03:58:52;;;;;;;10.4;16.8;;;;;;;1.9;88.2;99590;;;;
2022/10/13 04:09:48;;;;;;;10.4;16.8;;;;;;;1.9;88.2;99590;;;;
2022/10/13 04:20:49;;;;;;;10.4;16.8;;;;;;;2;88.3;99590;;;;
2022/10/13 04:30:49;;;;;;;12.1;20.5;;;;;;;2;88.3;99580;;;;
2022/10/13 04:41:49;;;;;;;12.1;20.5;;;;;;;1.9;88.1;99580;;;;
2022/10/13 04:51:48;;;;;;;12.1;20.5;;;;;;;1.8;87.8;99570;;;;
2022/10/13 05:01:49;;;;;;;12.5;20;;;;;;;1.7;87.6;99580;;;;
2022/10/13 05:11:48;;;;;;;12.5;20;;;;;;;1.8;87.8;99590;;;;
2022/10/13 05:22:48;;;;;;;12.5;20;;;;;;;1.9;88.1;99590;;;;
2022/10/13 05:33:48;;;;;;;15.4;27.4;;;;;;;2.2;88.5;99590;;;;
2022/10/13 05:43:48;;;;;;;15.4;27.4;;;;;;;2;88.8;99590;;;;
2022/10/13 05:54:48;;;;;;;15.4;27.4;;;;;;;2.2;89.2;99590;;;;
2022/10/13 06:05:48;;;;;;;15.2;24.3;;;;;;;2.5;89.3;99590;;;;
2022/10/13 06:15:48;;;;;;;15.2;24.3;;;;;;;2.7;89.5;99600;;;;
2022/10/13 06:26:49;;;;;;;15.2;24.3;;;;;;;3.1;89.3;99600;;;;
2022/10/13 06:36:48;;;;;;;12.7;21.3;;;;;;;3.6;89.7;99600;;;;
2022/10/13 06:47:48;;;;;;;12.7;21.3;;;;;;;3.9;89.4;99600;;;;
2022/10/13 06:57:48;;;;;;;16.2;25;;;;;;;4.4;89.1;99580;;;;
2022/10/13 07:08:48;;;;;;;16.2;25;;;;;;;4.7;88.3;99590;;;;
2022/10/13 07:18:49;;;;;;;16.2;25;;;;;;;5.2;88;99580;;;;
2022/10/13 07:28:49;;;;;;;17.8;22.7;;;;;;;5.6;87.7;99580;;;;
2022/10/13 07:39:48;;;;;;;17.8;22.7;;;;;;;6.1;87.6;99570;;;;
2022/10/13 07:50:48;;;;;;;17.8;22.7;;;;;;;6.4;87.3;99560;;;;
2022/10/13 08:00:48;;;;;;;23.6;26.8;;;;;;;7;86.7;99550;;;;
2022/10/13 08:11:49;;;;;;;23.6;26.8;;;;;;;7.4;86;99540;;;;
2022/10/13 08:22:48;;;;;;;23.6;26.8;;;;;;;7.8;85.2;99530;;;;
2022/10/13 08:32:48;;;;;;;24.6;29.5;;;;;;;8.3;85.1;99530;;;;
2022/10/13 08:43:49;;;;;;;24.6;29.5;;;;;;;8.9;84.8;99520;;;;
2022/10/13 08:54:49;;;;;;;24.6;29.5;;;;;;;9.6;83.3;99500;;;;
2022/10/13 09:05:49;;;;;;;27;32.9;;;;;;;10.1;81.3;99490;;;;
2022/10/13 09:15:49;;;;;;;27;32.9;;;;;;;10.7;79;99480;;;;
2022/10/13 09:26:48;;;;;;;27;32.9;;;;;;;11.3;77.1;99470;;;;
2022/10/13 09:37:49;;;;;;;19.1;22;;;;;;;12.1;75.2;99470;;;;
2022/10/13 09:48:49;;;;;;;19.1;22;;;;;;;12.7;73.2;99460;;;;
2022/10/13 09:59:49;;;;;;;18.4;24;;;;;;;13.1;71.9;99450;;;;
2022/10/13 10:10:49;;;;;;;18.4;24;;;;;;;13.6;71;99430;;;;
2022/10/13 10:21:48;;;;;;;18.4;24;;;;;;;13.8;70.4;99420;;;;
2022/10/13 10:31:49;;;;;;;18.8;22.3;;;;;;;14.3;69.4;99410;;;;
2022/10/13 10:42:49;;;;;;;18.8;22.3;;;;;;;14.4;68.5;99400;;;;
2022/10/13 10:53:49;;;;;;;18.8;22.3;;;;;;;14.9;67.8;99390;;;;
2022/10/13 11:04:49;;;;;;;18.3;27.1;;;;;;;15.2;66.8;99370;;;;
2022/10/13 11:15:49;;;;;;;18.3;27.1;;;;;;;15.4;65.7;99360;;;;
2022/10/13 11:26:49;;;;;;;15.6;22.1;;;;;;;15.8;65.1;99340;;;;
2022/10/13 11:36:48;;;;;;;15.6;22.1;;;;;;;15.9;64.7;99340;;;;
2022/10/13 11:47:52;;;;;;;15.6;22.1;;;;;;;16;65.1;99330;;;;
2022/10/13 11:57:49;;;;;;;14;19.1;;;;;;;16.3;64.4;99310;;;;
2022/10/13 12:08:49;;;;;;;14;19.1;;;;;;;16.4;62.2;99310;;;;
2022/10/13 12:19:48;;;;;;;14;19.1;;;;;;;16.3;63.1;99300;;;;
2022/10/13 12:29:49;;;;;;;13.7;19.6;;;;;;;16.6;61.6;99290;;;;
2022/10/13 12:40:49;;;;;;;13.7;19.6;;;;;;;16.8;61.3;99270;;;;
2022/10/13 12:51:49;;;;;;;13.7;19.6;;;;;;;16.8;60.9;99260;;;;
2022/10/13 13:02:49;;;;;;;10.7;16.5;;;;;;;16.9;59.8;99260;;;;
2022/10/13 13:13:49;;;;;;;10.7;16.5;;;;;;;17.1;60.3;99250;;;;
2022/10/13 13:24:49;;;;;;;10.7;16.5;;;;;;;16.7;60.4;99240;;;;
2022/10/13 13:34:49;;;;;;;9.3;13.4;;;;;;;16.9;59.1;99240;;;;
2022/10/13 13:44:49;;;;;;;9.3;13.4;;;;;;;16.6;59.5;99240;;;;
2022/10/13 13:54:49;;;;;;;9.3;13.4;;;;;;;16.7;59.5;99240;;;;
2022/10/13 14:05:49;;;;;;;9.7;12.8;;;;;;;16.5;60.2;99240;;;;
2022/10/13 14:15:49;;;;;;;9.7;12.8;;;;;;;16.2;60.6;99230;;;;
2022/10/13 14:26:49;;;;;;;62.6;80.6;;;;;;;15.9;61.2;99240;;;;
2022/10/13 14:36:49;;;;;;;62.6;80.6;;;;;;;15.6;62.6;99230;;;;
2022/10/13 14:47:49;;;;;;;62.6;80.6;;;;;;;15.3;63.4;99230;;;;
2022/10/13 14:58:49;;;;;;;18.8;26.2;;;;;;;15.1;64.2;99220;;;;
2022/10/13 15:09:49;;;;;;;18.8;26.2;;;;;;;14.7;65.5;99230;;;;
2022/10/13 15:19:49;;;;;;;18.8;26.2;;;;;;;14.3;67;99220;;;;
2022/10/13 15:30:49;;;;;;;9.7;16.3;;;;;;;14;68.3;99220;;;;
2022/10/13 15:40:49;;;;;;;9.7;16.3;;;;;;;13.9;69;99220;;;;
2022/10/13 15:51:49;;;;;;;9.7;16.3;;;;;;;13.7;69.5;99220;;;;
2022/10/13 16:02:49;;;;;;;11.7;18.8;;;;;;;13.5;70;99220;;;;
2022/10/13 16:13:49;;;;;;;11.7;18.8;;;;;;;13.1;70.5;99210;;;;
2022/10/13 16:23:49;;;;;;;11.7;18.8;;;;;;;12.6;71.4;99210;;;;
2022/10/13 16:34:49;;;;;;;9.8;14.1;;;;;;;12.2;74;99210;;;;
2022/10/13 16:45:49;;;;;;;9.8;14.1;;;;;;;11.8;74.6;99210;;;;
2022/10/13 16:55:49;;;;;;;9.8;14.1;;;;;;;11.4;75.9;99210;;;;
2022/10/13 17:05:49;;;;;;;19.8;23.9;;;;;;;11.1;75.9;99220;;;;
2022/10/13 17:15:49;;;;;;;19.8;23.9;;;;;;;10.8;76.5;99220;;;;
2022/10/13 17:26:49;;;;;;;17;21.7;;;;;;;10.5;77.4;99210;;;;
2022/10/13 17:37:49;;;;;;;17;21.7;;;;;;;10.2;78.3;99210;;;;
2022/10/13 17:48:49;;;;;;;17;21.7;;;;;;;10;79;99200;;;;
2022/10/13 17:58:49;;;;;;;23.4;29.9;;;;;;;10.1;80.2;99200;;;;
2022/10/13 18:09:49;;;;;;;23.4;29.9;;;;;;;10.1;80.5;99200;;;;
2022/10/13 18:19:49;;;;;;;23.4;29.9;;;;;;;10;82.1;99200;;;;
2022/10/13 18:30:49;;;;;;;29.5;41.6;;;;;;;9.8;82.7;99190;;;;
2022/10/13 18:40:49;;;;;;;29.5;41.6;;;;;;;9.6;83;99190;;;;
2022/10/13 18:50:49;;;;;;;29.5;41.6;;;;;;;9.4;82.1;99190;;;;
2022/10/13 19:00:49;;;;;;;28.7;38.7;;;;;;;9.1;82.1;99200;;;;
2022/10/13 19:10:49;;;;;;;28.7;38.7;;;;;;;8.8;82.8;99200;;;;
2022/10/13 19:21:49;;;;;;;28.7;38.7;;;;;;;8.6;83.9;99190;;;;
2022/10/13 19:31:49;;;;;;;27.7;37;;;;;;;8.4;84.2;99190;;;;
2022/10/13 19:41:49;;;;;;;27.7;37;;;;;;;8.2;84.3;99190;;;;
2022/10/13 19:51:49;;;;;;;27.7;37;;;;;;;8.1;84.5;99190;;;;
2022/10/13 20:02:49;;;;;;;27.2;37.5;;;;;;;8;86.2;99190;;;;
2022/10/13 20:12:49;;;;;;;27.2;37.5;;;;;;;8;86.4;99190;;;;
2022/10/13 20:23:49;;;;;;;27.2;37.5;;;;;;;7.8;86;99180;;;;
2022/10/13 20:34:49;;;;;;;27.4;38.9;;;;;;;7.7;86;99180;;;;
2022/10/13 20:44:49;;;;;;;27.4;38.9;;;;;;;7.5;86.3;99170;;;;
2022/10/13 20:54:49;;;;;;;27.4;38.9;;;;;;;7.4;86.2;99180;;;;
2022/10/13 21:05:49;;;;;;;27;34.9;;;;;;;7.3;86.8;99180;;;;
2022/10/13 21:16:49;;;;;;;27;34.9;;;;;;;7.2;87.5;99170;;;;
2022/10/13 21:27:49;;;;;;;25;35;;;;;;;7.2;88.2;99170;;;;
2022/10/13 21:38:49;;;;;;;25;35;;;;;;;7.3;88.8;99170;;;;
2022/10/13 21:49:49;;;;;;;25;35;;;;;;;7.6;89.2;99170;;;;
2022/10/13 22:00:49;;;;;;;27.8;38.7;;;;;;;7.9;89.5;99170;;;;
2022/10/13 22:11:49;;;;;;;27.8;38.7;;;;;;;8.2;89.7;99170;;;;
2022/10/13 22:22:49;;;;;;;27.8;38.7;;;;;;;8.5;89.7;99170;;;;
2022/10/13 22:33:52;;;;;;;29.7;39.4;;;;;;;8.8;89.3;99170;;;;
2022/10/13 22:44:49;;;;;;;29.7;39.4;;;;;;;9;88.9;99170;;;;
2022/10/13 22:55:49;;;;;;;29.7;39.4;;;;;;;9.1;88;99160;;;;
2022/10/13 23:05:49;;;;;;;30.1;36.2;;;;;;;9;87.7;99170;;;;
2022/10/13 23:15:49;;;;;;;30.1;36.2;;;;;;;8.8;87.3;99150;;;;
2022/10/13 23:25:49;;;;;;;30.1;36.2;;;;;;;8.8;87;99140;;;;
2022/10/13 23:36:49;;;;;;;27.3;35.9;;;;;;;8.6;87.2;99130;;;;
2022/10/13 23:46:49;;;;;;;27.3;35.9;;;;;;;8.7;88;99130;;;;
2022/10/13 23:56:49;;;;;;;29.1;38.9;;;;;;;8.6;88.1;99130;;;;
